x

8419317 - Wells, Me (welm1) Weather Station

12:54 - Sat 1st Oct 2016 All times are EDT. -4 hours from GMT.

  • Wind
    11mph, 14mph gusts
  • Sea Temp 58°f
  • Air Temp 55°f
  • Sea Pressure 1026.7mb
  • 8419317 - Wells, Me
  • 8419317 - Wells, Me

More Historic Weather Station data

Upgrade to MSW Pro to gain access to the past 30 days of data for over 8000 Wavebouys and Weather Stations around the globe.

Join Pro

Comparision Forecast

View Surf forecast
   
sam. 10/01 12:54 11 14 mph 1026.7mb 58f 55f
12:48 9 11 mph 1026.8mb 58f 55f
12:42 11 14 mph 1026.8mb 58f 55f
12:36 9 13 mph 1026.9mb 58f 55f
12:30 9 10 mph 1027.1mb 58f 55f
12:24 9 13 mph 1027.1mb 58f 55f
12:18 10 13 mph 1027.1mb 58f 54f
12:12 11 14 mph 1027.1mb 58f 54f
12:06 11 15 mph 1027.1mb 58f 54f
12:00 10 14 mph 1027.1mb 58f 54f
11:54 9 13 mph 1027.2mb 58f 54f
11:48 9 14 mph 1027.2mb 58f 54f
11:42 9 11 mph 1027.3mb 58f 54f
11:36 7 9 mph 1027.4mb 58f 54f
11:30 7 8 mph 1027.4mb 58f 53f
11:24 6 8 mph 1027.4mb 58f 53f
11:18 6 9 mph 1027.4mb 58f 53f
11:12 7 10 mph 1027.4mb 58f 53f
11:06 8 9 mph 1027.5mb 58f 53f
11:00 8 9 mph 1027.6mb 58f 53f
10:54 6 8 mph 1027.7mb 58f 53f
10:48 7 9 mph 1027.8mb 58f 53f
10:42 6 9 mph 1027.9mb 58f 53f
10:36 7 9 mph 1028mb 58f 53f
10:30 7 8 mph 1028mb 58f 53f
10:24 8 10 mph 1028.2mb 58f 53f
10:18 8 10 mph 1028.2mb 58f 52f
10:12 7 9 mph 1028.2mb 58f 52f
10:06 8 9 mph 1028.3mb 58f 52f
10:00 5 6 mph 1028.4mb 58f 52f
9:54 5 6 mph 1028.5mb 58f 52f
9:48 5 7 mph 1028.4mb 58f 52f
9:42 3 5 mph 1028.4mb 58f 52f
9:36 5 6 mph 1028.4mb 58f 51f
9:30 5 6 mph 1028.4mb 58f 51f
9:24 5 6 mph 1028.5mb 58f 52f
9:18 5 6 mph 1028.5mb 58f 52f
9:12 3 6 mph 1028.5mb 58f 52f
9:06 6 8 mph 1028.4mb 58f 52f
9:00 7 9 mph 1028.3mb 58f 51f
8:54 7 8 mph 1028.2mb 57f 51f
8:48 6 7 mph 1028.2mb 57f 51f
8:42 6 8 mph 1028.2mb 57f 51f
8:36 7 8 mph 1028.2mb 57f 51f
8:30 6 7 mph 1028.3mb 57f 51f
8:24 6 7 mph 1028.2mb 57f 51f
8:18 6 7 mph 1028.1mb 57f 51f
8:12 6 7 mph 1028.1mb 57f 51f
8:06 7 8 mph 1028.1mb 57f 51f
8:00 7 8 mph 1028.1mb 57f 51f
7:54 7 8 mph 1028.1mb 57f 51f
7:48 6 9 mph 1028.2mb 57f 52f
7:42 6 8 mph 1028.2mb 57f 52f
7:36 6 9 mph 1028.2mb 57f 52f
7:30 7 9 mph 1028.2mb 57f 52f
7:24 8 9 mph 1028.1mb 57f 52f
7:18 8 11 mph 1028.1mb 57f 52f
7:12 7 10 mph 1028.1mb 57f 52f
7:06 8 11 mph 1028.1mb 57f 52f
7:00 8 10 mph 1028.1mb 57f 52f
6:54 8 10 mph 1028.1mb 57f 52f
6:48 8 11 mph 1028.1mb 58f 52f
6:42 8 9 mph 1028.1mb 58f 52f
6:36 8 9 mph 1028.2mb 58f 52f
6:30 7 8 mph 1028.2mb 58f 52f
6:24 6 9 mph 1028.2mb 58f 52f
6:18 6 8 mph 1028.2mb 58f 52f
6:12 7
mph
1028.2mb 58f 52f
6:06 7 8 mph 1028.1mb 58f 52f
5:54 8 10 mph 1028mb 58f 52f
5:48 8 10 mph 1028mb 58f 52f
5:42 8 9 mph 1028.1mb 58f 52f
5:36 8 9 mph 1028.1mb 58f 52f
5:30 7 9 mph 1028.1mb 58f 52f
5:24 8 10 mph 1028mb 58f 52f
5:18 8 10 mph 1027.9mb 58f 52f
5:12 9 11 mph 1027.9mb 58f 52f
5:06 8 10 mph 1028mb 58f 52f
5:00 8 10 mph 1028.1mb 58f 52f
4:54 8 10 mph 1028.2mb 58f 52f
4:48 9 10 mph 1028.2mb 58f 52f
4:42 8 10 mph 1028.2mb 58f 52f
4:36 7 9 mph 1028.3mb 58f 52f
4:30 8 9 mph 1028.3mb 58f 52f
4:24 7 9 mph 1028.3mb 58f 52f
4:18 7 9 mph 1028.3mb 58f 52f
4:12 7 9 mph 1028.3mb 58f 52f
4:06 7 9 mph 1028.3mb 58f 52f
4:00 7 9 mph 1028.3mb 58f 52f
3:54 7 9 mph 1028.4mb 58f 52f
3:48 7 9 mph 1028.4mb 58f 52f
3:42 8 10 mph 1028.4mb 58f 52f
3:36 9 10 mph 1028.5mb 58f 52f
3:30 8 9 mph 1028.4mb 58f 52f
3:24 9 10 mph 1028.4mb 58f 52f
3:18 8 9 mph 1028.5mb 58f 52f
3:12 8 10 mph 1028.6mb 58f 52f
3:06 8 10 mph 1028.7mb 58f 52f
3:00 8 10 mph 1028.7mb 58f 52f
2:30 8 10 mph 1029mb 58f 52f
2:24 8 10 mph 1029.1mb 58f 52f
2:18 8 10 mph 1029.1mb 58f 52f
2:12 7 10 mph 1029.1mb 58f 52f
2:06 8 10 mph 1029.1mb 58f 52f
2:00 8 10 mph 1029.2mb 58f 52f
1:54 9 10 mph 1029.3mb 58f 52f
1:48 9 10 mph 1029.3mb 58f 53f
1:42 8 9 mph 1029.4mb 58f 52f
1:36 7 8 mph 1029.4mb 58f 52f
1:30 7 8 mph 1029.4mb 58f 52f
1:24 7 9 mph 1029.3mb 58f 52f
1:18 7 8 mph 1029.3mb 58f 52f
1:12 7 8 mph 1029.3mb 58f 52f
1:06 7 8 mph 1029.3mb 58f 52f
1:00 8 9 mph 1029.3mb 58f 52f
12:54 7 9 mph 1029.3mb 58f 52f
12:48 7 9 mph 1029.4mb 58f 52f
12:42 7 8 mph 1029.5mb 58f 53f
12:36 7 8 mph 1029.4mb 58f 52f
12:30 7 8 mph 1029.6mb 58f 53f
12:24 7 8 mph 1029.6mb 58f 52f
12:18 7 8 mph 1029.7mb 58f 53f
12:12 7 8 mph 1029.7mb 58f 53f
12:06 6 8 mph 1029.8mb 58f 53f
12:00 7 8 mph 1029.8mb 58f 52f
ven. 09/30 11:54 7 8 mph 1029.8mb 58f 52f
11:48 7 8 mph 1029.8mb 58f 52f
11:42 7 8 mph 1029.8mb 58f 53f
11:36 7 8 mph 1029.9mb 58f 53f
11:30 7 8 mph 1029.9mb 58f 53f
11:24 6 7 mph 1029.9mb 58f 53f
11:18 7
mph
1029.8mb 58f 53f
11:12 6 7 mph 1029.9mb 58f 53f
11:06 6 8 mph 1029.9mb 58f 53f
11:00 6 7 mph 1029.9mb 58f 53f
10:54 6 7 mph 1030.1mb 58f 53f
10:48 6 7 mph 1030.1mb 58f 53f
10:42 6
mph
1030.2mb 58f 53f
10:36 6
mph
1030.3mb 58f 53f
10:30 6 7 mph - 58f 53f
10:24 6
mph
- 58f 52f
10:18 6
mph
1030.3mb 58f 52f
10:12 5 6 mph 1030.3mb 58f 52f
10:06 6
mph
1030.3mb 58f 52f
10:00 5 6 mph 1030.3mb 58f 52f
9:54 5 6 mph 1030.4mb 58f 52f
9:48 5 6 mph 1030.4mb 58f 52f
9:42 5 6 mph 1030.4mb 58f 52f
9:36 6
mph
1030.4mb 58f 52f
9:30 6
mph
1030.4mb 58f -
9:24 6
mph
1030.3mb 58f -
9:18 5 6 mph 1030.4mb 58f 52f
9:12 5 6 mph 1030.4mb 58f 52f
9:06 6
mph
1030.5mb 58f 53f
9:00 6
mph
1030.4mb 58f 53f
8:54 5 6 mph 1030.5mb 58f 53f
8:48 3 6 mph 1030.5mb 58f 53f
8:42 6 7 mph 1030.4mb 58f 53f
8:36 3 6 mph 1030.5mb 58f 53f
8:30 5 7 mph 1030.5mb 58f -
8:24 6 7 mph 1030.5mb 58f -
8:18 6 8 mph 1030.6mb 58f 53f
8:12 6 8 mph 1030.5mb 58f 53f
8:06 7 8 mph 1030.5mb 58f 53f
8:00 7 8 mph 1030.5mb 58f 53f
7:54 6 8 mph 1030.4mb 58f 53f
7:48 6 8 mph 1030.4mb 58f -
7:42 6 8 mph 1030.4mb 58f -
7:36 7 8 mph 1030.3mb 58f -
7:00 7 9 mph 1030.3mb 58f 54f
6:54 7 10 mph 1030.3mb 59f 54f
6:48 7 8 mph 1030.3mb 59f -
6:42 8 10 mph 1030.4mb 59f -
6:36 7 10 mph 1030.5mb 59f -
6:30 9 10 mph 1030.5mb 59f 55f
6:24 8 10 mph 1030.6mb 59f 55f
6:18 7 9 mph - 59f 55f
6:12 8 13 mph - 58f 55f
6:06 7 13 mph - 58f 55f
6:00 7 13 mph 1030.7mb 58f 55f
5:54 10 13 mph 1030.7mb 58f 55f
5:48 9 11 mph 1030.9mb 58f 55f
5:42 11 15 mph 1030.9mb 58f 55f
5:36 9 15 mph 1030.9mb 58f 55f
5:30 8 13 mph 1030.9mb 58f 55f
5:24 9 13 mph 1031mb 58f 55f
5:18 10 14 mph 1031mb 58f 55f
5:12 10 14 mph 1031.1mb 58f 55f
5:06 9 13 mph 1031mb 58f 55f
5:00 9 11 mph 1031.1mb 58f 55f
4:54 7 14 mph 1031mb 58f 56f
4:48 13 16 mph 1030.9mb 58f 55f
4:42 13 16 mph 1030.9mb 58f 55f
4:36 10 15 mph 1030.9mb 58f 55f
4:30 11 14 mph 1030.9mb 58f 56f
4:24 11 14 mph 1031mb 58f 55f
4:18 11 15 mph 1031.1mb 58f 56f
4:12 10 14 mph 1031.1mb 58f 55f
4:06 10 14 mph 1031.1mb 58f 56f
4:00 9 14 mph 1031.2mb 58f 55f
3:54 11 16 mph 1031.2mb 58f 55f
3:48 10 16 mph 1031.2mb 58f 56f
3:42 13 17 mph 1031.2mb 58f 55f
3:36 13 15 mph 1031.3mb 58f 55f
3:30 14 20 mph 1031.4mb 58f 55f
3:24 16 20 mph 1031.4mb 58f 56f
3:18 11 17 mph 1031.5mb 58f 56f
3:12 11 16 mph 1031.6mb 58f 56f
3:06 14 17 mph 1031.7mb 59f 56f
3:00 11 14 mph 1031.7mb 59f 56f
2:54 14 17 mph 1031.9mb 59f 56f
2:48 13 16 mph 1032mb 59f 56f
2:42 13 18 mph 1032mb 59f 56f
2:36 11 16 mph 1032.1mb 59f 56f
2:30 13 18 mph 1032.1mb 59f 56f
2:24 14 17 mph 1032.1mb 59f 56f
2:18 15 17 mph 1032.2mb 59f 56f
2:12 14 17 mph 1032.2mb 59f 56f
2:06 14 18 mph 1032.2mb 59f 56f
2:00 13 17 mph 1032.2mb 59f 56f
1:54 14 18 mph 1032.3mb 59f 56f
1:48 15 20 mph 1032.3mb 59f 56f
1:42 14 16 mph 1032.3mb 59f 56f
1:36 13 18 mph 1032.6mb 59f 56f
1:30 13 16 mph 1032.6mb 59f 56f
1:24 13 18 mph 1032.7mb 58f 56f
1:18 13 18 mph 1032.8mb 58f 56f
1:12 14 20 mph 1032.8mb 58f 56f
1:06 15 18 mph 1032.8mb 58f 56f
1:00 11 18 mph 1033mb 58f 56f
12:54 11 17 mph 1033mb 58f 56f
12:48 15 18 mph 1032.9mb 58f 56f
12:42 14 16 mph 1033mb 58f 56f
12:36 13 18 mph 1033.1mb 58f 56f
12:30 13 18 mph 1033.1mb 58f 56f
12:24 14 18 mph 1033mb 58f 56f
12:18 13 17 mph 1033.1mb 58f 56f
12:12 14 18 mph 1033.1mb 58f 56f
12:06 11 17 mph 1033.1mb 58f 56f
12:00 14 18 mph 1033.1mb 58f 56f
11:54 15 20 mph 1033.2mb 58f 56f
11:48 11 20 mph 1033.3mb 58f 56f
11:42 11 16 mph 1033.2mb 58f 56f
11:36 15 18 mph 1033.2mb 58f 55f
11:30 14 16 mph 1033.3mb 58f 55f
11:24 13 16 mph 1033.4mb 58f 55f
11:18 13 16 mph 1033.4mb 58f 55f
11:12 11 18 mph 1033.3mb 58f 55f
11:06 13 17 mph 1033.3mb 58f 55f
11:00 13 16 mph 1033.2mb 58f 55f
10:54 11 15 mph 1033.2mb 58f 55f
10:48 9 15 mph 1033.3mb 58f 55f
10:42 10 15 mph 1033.4mb 58f 55f
10:36 10 14 mph 1033.5mb 58f 55f
10:30 8 17 mph 1033.4mb 58f 55f
10:24 9 15 mph 1033.4mb 58f 55f
10:18 11 16 mph 1033.4mb 58f 54f
10:12 10 14 mph 1033.4mb 58f 55f
10:06 9 14 mph 1033.5mb 58f 55f
10:00 8 11 mph 1033.5mb 58f 54f
9:54 9 11 mph 1033.5mb 58f 54f
9:48 7 10 mph 1033.5mb 58f 53f
9:42 8 11 mph 1033.6mb 58f 53f
9:36 9 11 mph 1033.5mb 58f 53f
9:30 8 13 mph 1033.5mb 58f 52f
9:24 7 11 mph 1033.5mb 58f 52f
9:18 8 11 mph 1033.4mb 58f 51f
9:12 9 13 mph 1033.3mb 58f 51f
9:06 9 13 mph 1033.3mb 58f 51f
9:00 9 14 mph 1033.2mb 58f 50f
8:54 10 13 mph 1033.2mb 58f 50f
8:48 10 11 mph 1033.2mb 58f 49f
8:42 9 13 mph 1033.3mb 58f 49f
8:36 9 13 mph 1033.2mb 58f 48f
8:30 10 13 mph 1033.2mb 58f 48f
8:24 10 14 mph 1033.1mb 58f 48f
8:18 9 13 mph 1033.1mb 58f 48f
8:12 11 15 mph 1033.1mb 57f 47f
8:06 10 15 mph 1033.1mb 57f 47f
8:00 9 13 mph 1033.1mb 56f 47f
7:54 10 13 mph 1033.1mb 56f 46f
7:48 11 13 mph 1033.2mb 56f 46f
7:42 9 13 mph 1033.2mb 56f 46f
7:36 10 14 mph 1033.2mb 56f 46f
7:30 11 14 mph 1033.1mb 56f 46f
7:24 11 14 mph 1033.1mb 56f 46f
7:18 10 13 mph 1033.1mb 56f 46f
7:12 10 13 mph 1033mb 56f 45f
7:06 11 14 mph 1033mb 56f 46f
7:00 10 13 mph 1033mb 56f 46f
6:54 11 13 mph 1033mb 56f 46f
6:48 10 13 mph 1033mb 56f 46f
6:42 11 13 mph 1032.9mb 56f 46f
6:36 10 13 mph 1032.9mb 57f 45f
6:30 10 13 mph 1032.9mb 57f 45f
6:24 10 13 mph 1032.8mb 57f 45f
6:18 10 14 mph 1032.9mb 58f 45f
6:12 10 13 mph 1032.9mb 58f 45f
6:06 10 13 mph 1032.9mb 58f 45f
6:00 9 11 mph 1032.9mb 58f 45f
5:54 9 11 mph 1033mb 58f 45f
5:48 9 13 mph 1033mb 58f 45f
5:42 9 11 mph 1033.1mb 58f 46f
5:36 10 14 mph 1033mb 58f 46f
5:30 9 14 mph 1033mb 58f 46f
5:24 10 13 mph 1032.9mb 58f 46f
5:18 10 14 mph 1032.9mb 58f 46f
5:12 11 14 mph 1033mb 58f 46f
5:06 10 13 mph 1033mb 58f 46f
5:00 11 14 mph 1033.2mb 58f 46f
4:54 10 13 mph 1033.2mb 58f 46f
4:48 10 13 mph 1033.2mb 58f 46f
4:42 10 11 mph 1033.2mb 58f 46f
4:36 9 13 mph 1033.1mb 58f 46f
4:30 10 13 mph 1033mb 58f 46f
4:24 10 13 mph 1033.1mb 58f 46f
4:18 10 13 mph 1033.1mb 58f 46f
4:12 9 13 mph 1033mb 58f 46f
4:06 10 11 mph 1033mb 58f 46f
4:00 10 13 mph 1033.1mb 58f 47f
3:54 9 11 mph 1033.1mb 58f 47f
3:48 10 13 mph 1032.9mb 58f 47f
3:42 10 11 mph 1032.9mb 58f 47f
3:36 10 11 mph 1032.9mb 58f 47f
3:30 10 11 mph 1032.9mb 58f 47f
3:24 9 11 mph 1033.1mb 58f 47f
3:18 10 11 mph 1033mb 58f 47f
3:12 10 13 mph 1033mb 58f 47f
3:06 10 11 mph 1033mb 59f 47f
3:00 9 11 mph 1033.1mb 59f 47f
2:54 10 13 mph 1033.1mb 58f 47f
2:48 9 11 mph 1033.2mb - -
2:42 9 11 mph 1033.3mb - -
2:36 9 13 mph 1033.3mb - -
2:30 10 11 mph 1033.3mb 58f 48f
2:24 10 13 mph 1033.2mb 58f 48f
2:18 10 11 mph 1033mb 58f 48f
2:12 9 11 mph 1033.2mb 58f 48f
2:06 9 10 mph 1033.3mb 58f 48f
2:00 9 10 mph 1033.4mb 58f 48f
1:54 8 10 mph 1033.5mb 58f 49f
1:48 8 10 mph 1033.5mb 58f 49f
1:42 9 10 mph 1033.4mb 58f 48f
1:36 8 11 mph 1033.6mb 58f 49f
1:30 9 10 mph 1033.5mb 58f 49f
1:24 8 10 mph 1033.6mb 58f 48f
1:18 8 10 mph 1033.6mb 58f 49f
1:12 9 10 mph 1033.6mb 58f 49f
1:06 9 10 mph 1033.5mb 58f 49f
1:00 9 11 mph 1033.6mb 58f 49f
12:54 9 13 mph 1033.5mb 58f 49f
12:48 9 11 mph 1033.7mb 58f 49f
12:42 10 11 mph 1033.8mb 58f 49f
12:36 9 11 mph 1033.7mb 58f 49f
12:30 9 11 mph 1033.7mb 58f 49f
12:24 10 13 mph 1033.7mb 58f 49f
12:18 9 11 mph 1033.8mb 59f 50f
12:12 9 11 mph 1033.9mb 59f 50f
12:06 9 10 mph 1033.9mb 59f 50f
12:00 8 9 mph 1034.1mb 59f 50f
jeu. 09/29 11:54 8 10 mph 1034.1mb 59f 50f
11:48 8 10 mph 1034mb 59f 50f
11:42 9 10 mph 1033.9mb 59f 50f
11:36 8 10 mph 1033.8mb 59f 50f
11:30 9 11 mph 1033.8mb 59f 50f
11:24 10 11 mph 1033.8mb 59f 50f
11:18 9 10 mph 1033.9mb 59f 50f
11:12 8 10 mph 1033.9mb 59f 51f
11:06 9 10 mph 1033.9mb 59f 51f
11:00 9
mph
1033.9mb 59f 51f
10:54 8 9 mph 1034mb 59f 51f
10:48 8 9 mph 1034mb 59f 51f
10:42 8
mph
1033.9mb 59f 51f
10:36 7 9 mph 1034mb 59f 51f
10:30 7 8 mph 1033.8mb 59f 51f
10:24 8 9 mph 1033.7mb 59f 51f
10:18 7 8 mph 1033.9mb 59f 51f
10:12 7 9 mph 1033.9mb 59f 51f
10:06 7 8 mph 1033.8mb 59f 51f
10:00 8
mph
1033.7mb 59f 51f
9:54 6 7 mph 1033.9mb 59f 51f
9:48 6 7 mph 1033.8mb 59f 51f
9:42 7
mph
1033.7mb 59f 51f
9:36 6
mph
1033.7mb 59f 51f
9:30 6
mph
1033.7mb 59f 51f
9:24 6
mph
1033.6mb 59f 51f
9:18 5 6 mph 1033.7mb 59f 51f
9:12 3 5 mph 1033.6mb 59f 51f
9:06 5 6 mph 1033.5mb 59f 51f
9:00 6
mph
1033.5mb 59f 51f
8:54 5 6 mph 1033.5mb 59f 52f
8:48 6
mph
1033.4mb 59f 51f
8:42 6 7 mph 1033.4mb 59f 51f
8:36 6 7 mph 1033.3mb 59f 51f
8:30 7
mph
1033.3mb 59f 51f
8:24 6
mph
1033.4mb 59f 51f
8:18 6
mph
1033.3mb 59f 52f
8:12 5 6 mph 1033.3mb 59f 52f
8:06 6
mph
1033.3mb 59f 52f
8:00 5 6 mph 1033.2mb 59f 52f
7:54 5 6 mph 1033.1mb 59f 52f
7:48 5 6 mph 1033mb 60f -
7:42 6
mph
1033mb 60f -
7:36 6
mph
1032.9mb 61f -
7:30 5
mph
1033mb 61f 54f
7:24 5 6 mph 1033mb 61f 54f
7:18 5 7 mph 1033mb 61f 55f
7:06 6 10 mph 1032.9mb 61f 57f
7:00 8 10 mph 1033mb 61f 58f
6:54 7 10 mph 1033.2mb 61f 58f
6:48 7 9 mph 1033.2mb 61f -
6:42 8 11 mph 1033.1mb 61f -
6:36 9 13 mph 1032.9mb 61f -
6:30 9 13 mph 1032.9mb 61f 58f
6:24 8 11 mph 1032.8mb 61f 58f
6:18  -  mph 1032.8mb 61f -
6:12  -  mph 1032.8mb 61f -
6:06  -  mph 1032.8mb 61f -
6:00 9 13 mph 1032.9mb 60f 58f
5:54 9 13 mph 1032.9mb 60f 58f
5:48 9 13 mph - 60f 58f
5:42 9 11 mph - 60f 58f
5:36 8 11 mph - 60f 58f
5:30 9 11 mph 1032.8mb 60f 58f
5:24 8 11 mph 1032.8mb 60f 59f
5:18 8 10 mph 1032.8mb 60f 59f
5:12 8 10 mph 1032.9mb 60f 59f
5:06 8 10 mph 1032.9mb 60f 59f
5:00 7 10 mph 1032.9mb 60f 59f
4:54 8 10 mph 1032.9mb 60f 59f
4:48 8 10 mph 1032.8mb 60f 59f
4:42 8 11 mph 1032.6mb 60f 59f
4:36 8 13 mph 1032.6mb 60f 59f
4:30 9 11 mph 1032.5mb 60f 59f
4:24 10 13 mph 1032.6mb 60f 59f
4:18 10 13 mph 1032.7mb 60f 59f
4:12 9 13 mph 1032.8mb 60f 59f
4:06 9 13 mph 1032.8mb 60f 59f
4:00 10 13 mph 1032.7mb 60f 59f
3:54 11 15 mph 1032.8mb 60f 59f
3:48 10 14 mph 1032.8mb 60f 59f
3:42 10 13 mph 1032.7mb 60f 59f
3:36 10 15 mph 1032.6mb 60f 59f
3:30 11 14 mph 1032.7mb 60f 59f
3:24 9 14 mph 1032.7mb 60f 60f
3:18 10 14 mph 1032.7mb 60f 59f
3:12 11 14 mph 1032.8mb 59f 59f
3:06 13 16 mph 1032.6mb 59f 59f
3:00 13 16 mph 1032.6mb 59f 59f
2:54 11 15 mph 1032.6mb 59f 60f
2:48 11 17 mph 1032.7mb 59f 59f
2:42 11 15 mph 1032.8mb 60f 59f
2:36 10 16 mph 1033mb 59f 59f
2:30 13 16 mph 1032.8mb 60f 59f
2:24 10 14 mph 1032.9mb 60f 59f
2:18 11 14 mph 1032.8mb 60f 59f
2:12 11 15 mph 1032.7mb 60f 59f
2:06 11 18 mph 1032.8mb 60f 60f
2:00 11 14 mph 1032.9mb 60f 60f
1:54 11 15 mph 1033mb 60f 59f
1:48 10 15 mph 1033mb 60f 59f
1:42 13 15 mph 1033mb 60f 59f
1:36 13 17 mph 1033mb 60f 59f
1:30 11 16 mph 1033.1mb 60f 59f
1:24 14 20 mph 1033.3mb 60f 59f
1:18 13 17 mph 1033.2mb 60f 59f
1:12 10 14 mph 1033.2mb 59f 59f
1:06 13 21 mph 1033.2mb 59f 58f
1:00 15 20 mph 1033.3mb 59f 58f
12:54 11 17 mph 1033.5mb 59f 58f
12:48 13 18 mph 1033.5mb 59f 58f
12:42 15 18 mph 1033.6mb 59f 58f
12:36 9 14 mph 1033.5mb 59f 58f
12:30 9 18 mph 1033.5mb 59f 58f
12:24 15 21 mph 1033.4mb 59f 58f
12:18 15 22 mph 1033.4mb 59f 58f
12:12 16 21 mph 1033.2mb 59f 57f
12:06 16 22 mph 1033.1mb 59f 58f
12:00 13 20 mph 1033.1mb 59f 58f
11:54 14 18 mph 1033mb 59f 58f
11:48 18 23 mph 1033mb 59f 57f
11:42 14 22 mph 1033mb 59f 58f
11:36 15 21 mph 1033mb 59f 57f
11:30 20 25 mph 1032.9mb 59f 57f
11:24 15 22 mph 1033.1mb 59f 57f
11:18 14 23 mph 1033.2mb 59f 57f
11:12 15 18 mph 1033.2mb 59f 57f
11:06 16 21 mph 1033.3mb 59f 57f
11:00 16 23 mph 1033.3mb 59f 57f
10:54 13 18 mph 1033.3mb 58f 57f
10:48 15 22 mph 1033.3mb 58f 56f
10:42 16 20 mph 1033.2mb 58f 56f
10:36 17 22 mph 1033.2mb 59f 56f
10:30 17 23 mph 1033.3mb 59f 56f
10:24 18 24 mph 1033.2mb 59f 56f
10:18 16 24 mph 1033.2mb 59f 56f
10:12 13 20 mph 1033.2mb 58f 56f
10:06 13 23 mph 1033.2mb 58f 55f
10:00 14 22 mph 1033mb 58f 55f
9:54 17 21 mph 1033.1mb 58f 55f
9:48 9 15 mph 1033.3mb 58f 55f
9:42 14 18 mph 1033.1mb 58f 54f
9:36 14 17 mph 1033.1mb 58f 54f
9:30 13 17 mph 1033.1mb 58f 54f
9:24 13 15 mph 1033mb 58f 53f
9:18 9 13 mph 1033mb 58f 53f
9:12 11 17 mph 1033mb 58f 53f
9:06 14 21 mph 1032.7mb 58f 53f
9:00 14 16 mph 1032.6mb 58f 52f
8:54 14 17 mph 1032.7mb 58f 52f
8:48 13 17 mph 1032.8mb 58f 52f
8:42 11 16 mph 1032.8mb 58f 52f
8:36 13 16 mph 1032.7mb 58f 51f
8:30 13 16 mph 1032.6mb 58f 51f
8:24 11 18 mph 1032.5mb 58f 51f
8:18 14 18 mph 1032.4mb 58f 50f
8:12 13 15 mph 1032.3mb 58f 50f
8:06 13 18 mph 1032.3mb 58f 50f
8:00 14 21 mph 1032.1mb 58f 49f
7:54 16 21 mph 1032mb 58f 49f
7:48 15 17 mph 1032mb 58f 49f
7:42 14 17 mph 1032mb 58f 49f
7:36 14 17 mph 1031.9mb 58f 49f
7:30 13 16 mph 1031.8mb 57f 48f
7:24 10 16 mph 1031.8mb 57f 48f
7:18 14 17 mph 1031.7mb 57f 48f
7:12 13 16 mph 1031.6mb 57f 48f
7:06 13 15 mph 1031.6mb 57f 48f
7:00 11 14 mph 1031.5mb 57f 48f
6:54 10 13 mph 1031.5mb 57f 47f
6:48 10 14 mph 1031.4mb 57f 47f
6:42 10 13 mph 1031.3mb 57f 47f
6:36 10 13 mph 1031.3mb 57f 47f
6:30 10 14 mph 1031.3mb 57f 47f
6:24 9 11 mph 1031.3mb 57f 48f
6:18 10 13 mph 1031.2mb 57f 48f
6:12 10 13 mph 1031.1mb 57f 48f
6:06 9 11 mph 1031mb 57f 48f
6:00 8 10 mph 1031mb 57f 48f
5:54 9 11 mph 1030.9mb 58f 48f
5:48 8 10 mph 1031mb 58f 48f
5:42 8 10 mph 1030.9mb 58f 49f
5:36 7 13 mph 1030.9mb 58f 49f
5:30 8 11 mph 1030.8mb 58f 49f
5:24 9 13 mph 1030.7mb 58f 49f
5:18 10 11 mph 1030.6mb 58f 49f
5:12 9 11 mph 1030.5mb 58f 49f
5:06 8 10 mph 1030.5mb 58f 49f
5:00 8 11 mph 1030.4mb 58f 49f
4:54 8 11 mph 1030.2mb 58f 49f
4:48 8 10 mph 1030.1mb 58f 49f
4:42 9 11 mph 1030mb 58f 49f
4:36 7 10 mph 1030mb 58f 49f
4:30 8 10 mph 1029.9mb 58f 49f
4:24 8 10 mph 1029.8mb 59f 50f
4:18 7 10 mph 1030mb 59f 50f
4:12 7 10 mph 1029.9mb 59f 50f
4:06 8 9 mph 1030mb 59f 50f
4:00 6 8 mph 1030mb 59f 50f
3:54 7 8 mph 1029.9mb 59f 50f
3:48 7 9 mph 1029.8mb 59f 51f
3:42 8 11 mph 1029.6mb 59f 51f
3:36 9 10 mph 1029.6mb 59f 51f
3:30 9 11 mph 1029.7mb 59f 51f
3:24 9 11 mph 1029.6mb 59f 51f
3:18 9 10 mph 1029.4mb 59f 52f
3:12 8 10 mph 1029.3mb 59f 51f
3:06 9 10 mph 1029.2mb 59f 52f
3:00 8 10 mph 1029.1mb 59f 52f
2:54 9
mph
1029.1mb 59f 52f
2:48 8 11 mph 1029.3mb - -
2:42 9 13 mph 1029.2mb - -
2:36 8 11 mph 1029.2mb - -
2:30 8 11 mph 1029.3mb 59f 53f
2:24 9 10 mph 1029.3mb 59f 53f
2:18 8 11 mph 1029.5mb 59f 54f
2:12 7 9 mph 1029.5mb 59f 54f
2:06 7 9 mph 1029.4mb 59f 54f
2:00 6 8 mph 1029.5mb 59f 55f
1:54 8 10 mph 1029.5mb 59f 55f
1:48 6 9 mph 1029.6mb 59f -
1:42 7 9 mph 1029.6mb 59f -
1:36 8 9 mph 1029.5mb 59f -
1:30 8 9 mph 1029.5mb 59f 56f
1:24 7 9 mph 1029.4mb 59f 56f
1:18 7 10 mph 1029.5mb 59f 56f
1:12 7 8 mph 1029.4mb 59f 56f
1:06 7 11 mph 1029.3mb 59f 56f
1:00 9 11 mph 1029.3mb 59f 56f
12:54 9 13 mph 1029.3mb 59f 56f
12:48 9 10 mph 1029.3mb 59f 56f
12:42 8 14 mph 1029.3mb 59f 56f
12:36 7 10 mph 1029.5mb 59f 56f
12:30 9 10 mph 1029.4mb 59f 57f
12:24 7 13 mph 1029.4mb 59f 57f
12:18 13 17 mph 1029.4mb 59f 57f
12:12 9 14 mph 1029.5mb 59f 57f
12:06 10 14 mph 1029.5mb 59f 57f
12:00 11 18 mph 1029.5mb 59f 57f
mer. 09/28 11:54 13 18 mph 1029.4mb 59f 57f
11:48 11 21 mph 1029.3mb 59f 57f
11:42 13 21 mph 1029.3mb 59f 58f
11:36 11 18 mph 1029.3mb 59f 58f
11:30 9 15 mph 1029.4mb 59f 57f
11:24 9 20 mph 1029.5mb 59f 58f
11:18 11 17 mph 1029.3mb 59f 58f
11:12 11 17 mph 1029.3mb 59f 58f
11:06 11 16 mph 1029.2mb 59f 58f
11:00 15 18 mph 1029.2mb 59f 58f
10:54 14 20 mph 1029.3mb 59f 58f
10:48 13 16 mph 1029.2mb 59f 58f
10:42 10 17 mph 1029.3mb 59f 58f
10:36 11 15 mph 1029.2mb 59f 58f
10:30 8 20 mph 1029.2mb 59f 58f
10:24 10 15 mph 1029mb 59f 58f
10:18 15 18 mph 1029.1mb 59f 58f
10:12 13 18 mph 1028.9mb 59f 58f
10:06 14 22 mph 1028.8mb 59f 58f
10:00 9 17 mph 1028.7mb 59f 58f
9:54 16 18 mph 1028.7mb 59f 58f
9:48 15 18 mph 1028.7mb 59f 58f
9:42 13 22 mph 1028.7mb 59f 58f
9:36 15 22 mph 1028.5mb 59f 58f
9:30 13 17 mph 1028.6mb 59f 58f
9:24 11 17 mph 1028.5mb 59f 58f
9:18 15 20 mph 1028.4mb 59f 58f
9:12 17 22 mph 1028.3mb 59f 58f
9:06 11 14 mph 1028.2mb 59f 58f
9:00 13 16 mph 1028.2mb 59f 58f
8:54 11 18 mph 1028.1mb 59f 58f
8:48 11 16 mph 1027.9mb 59f 58f
8:42 13 20 mph 1027.9mb 59f 58f
8:36 13 18 mph 1027.8mb 59f 58f
8:30 14 20 mph - 59f 58f
8:24 11 20 mph - 59f 58f
8:18 14 22 mph 1027.5mb 59f 58f
8:12 13 18 mph 1027.4mb 59f 58f
8:06 8 11 mph 1027.4mb 59f 57f
8:00 6 8 mph 1027.3mb 59f 56f
7:54 6 9 mph 1027.1mb 59f 55f
7:48 7 9 mph 1027mb 59f -
7:42 7 9 mph 1026.9mb 59f -
7:36 6 8 mph 1027mb 59f -
7:30 7 9 mph 1026.9mb 59f 57f
7:24 7 11 mph 1026.9mb 59f 57f
7:18 8 13 mph 1026.9mb 59f 57f
7:12 9 14 mph 1026.8mb 59f 57f
7:06 10 15 mph 1026.9mb 59f 57f
7:00 11 14 mph 1026.8mb 59f 57f
6:54 10 14 mph 1026.8mb 59f 58f
6:48 6 9 mph 1026.8mb 59f -
6:42 6 8 mph 1026.7mb 60f -
6:36 6 7 mph 1026.6mb 60f -
6:30 6 7 mph 1026.5mb 60f 58f
6:24 6
mph
1026.5mb 60f 58f
6:18 6 8 mph 1026.6mb 60f 58f
6:12 8 9 mph 1026.5mb 60f 59f
6:06 7 10 mph 1026.4mb 60f 59f
6:00 9 11 mph 1026.3mb 60f 59f
5:54 8 14 mph 1026.2mb 60f 59f
5:48 8 10 mph 1026.3mb 60f 59f
5:42 8 14 mph 1026.3mb 60f 60f
5:36 11 15 mph 1026.2mb 60f 60f
5:30 9 15 mph 1026.1mb 60f 60f
5:24 9 14 mph 1026mb 59f 60f
5:18 9 13 mph 1026mb 59f 60f
5:12 9 15 mph 1026mb 59f 60f
5:06 11 15 mph 1026mb 59f 60f
5:00 11 14 mph 1025.9mb 59f 60f
4:54 9 18 mph 1025.9mb 59f 60f
4:48 11 23 mph 1026mb 59f 60f
4:42 9 17 mph 1026.1mb 59f 60f
4:36 13 16 mph 1025.9mb 59f 60f
4:30 11 14 mph 1025.8mb 59f 60f
4:24 10 16 mph 1025.8mb 59f 60f
4:18 15 20 mph 1025.7mb 59f 59f
4:12 13 18 mph 1025.7mb 59f 59f
4:06 13 17 mph 1025.5mb 59f 59f
4:00 13 17 mph 1025.5mb 59f 59f
3:54 16 18 mph 1025.5mb 59f 59f
3:48 10 16 mph 1025.7mb 59f 58f
3:42 13 16 mph 1025.7mb 59f 58f
3:36 9 15 mph 1025.8mb 59f 58f
3:30 9 13 mph 1025.8mb 59f 58f
3:24 9 11 mph 1025.8mb 59f 58f
3:18 10 16 mph 1025.7mb 59f 57f
3:12 13 16 mph 1025.8mb 59f 57f
3:06 9 13 mph 1025.8mb 59f 57f
3:00 8 13 mph 1025.9mb 59f 57f
2:54 8 14 mph 1025.8mb 59f 56f
2:48 13 15 mph 1025.7mb 59f 56f
2:42 9 17 mph 1025.7mb 59f 56f
2:36 11 17 mph 1025.7mb 59f 55f
2:30 11 15 mph 1025.7mb 59f 55f
2:24 13 17 mph 1025.7mb 59f 55f
2:18 13 16 mph 1025.7mb 59f 55f
2:12 10 15 mph 1025.8mb 59f 55f
2:06 13 14 mph 1025.8mb 59f 55f
2:00 9 14 mph 1025.8mb 59f 55f
1:54 13 15 mph 1025.7mb 59f 55f
1:48 13 16 mph 1025.7mb 59f 55f
1:42 13 15 mph 1025.8mb 59f 54f
1:36 9 15 mph 1025.8mb 59f 54f
1:30 15 20 mph 1025.9mb 59f 54f
1:24 13 16 mph 1026mb 59f 54f
1:18 11 20 mph 1026.1mb 59f 54f
1:12 11 17 mph 1026mb 59f 54f
1:06 13 16 mph 1025.9mb 59f 54f
1:00 13 16 mph 1025.9mb 59f 54f
12:54 11 15 mph 1025.8mb 59f 54f
12:48 13 16 mph 1025.8mb 59f 54f
12:42 8 16 mph 1025.8mb 59f 54f
12:36 14 17 mph 1025.7mb 59f 54f
12:30 11 16 mph 1025.7mb 59f 54f
12:24 11 14 mph 1025.8mb 59f 54f
12:18 10 15 mph 1025.8mb 59f 54f
12:12 10 18 mph 1025.7mb 59f 54f
12:06 11 17 mph 1025.5mb 59f 54f
12:00 15 21 mph 1025.5mb 59f 54f
11:54 14 18 mph 1025.5mb 59f 54f
11:48 11 15 mph 1025.4mb 59f 54f
11:42 10 13 mph 1025.5mb 59f 54f
11:36 11 18 mph 1025.5mb 59f 54f
11:30 9 16 mph 1025.5mb 59f 54f
11:24 10 18 mph 1025.5mb 59f 54f
11:18 11 15 mph 1025.4mb 59f 54f
11:12 11 20 mph 1025.5mb 59f 54f
11:06 13 20 mph 1025.5mb 59f 54f
11:00 10 15 mph 1025.5mb 59f 54f
10:54 8 14 mph 1025.5mb 59f 54f
10:48 10 15 mph 1025.4mb 59f 54f
10:42 10 17 mph 1025.5mb 59f 54f
10:36 11 14 mph 1025.4mb 59f 54f
10:30 9 14 mph 1025.4mb 59f 54f
10:24 10 14 mph 1025.2mb 59f 55f
10:18 9 11 mph 1025.2mb 59f 55f
10:12 13 14 mph 1025.3mb 59f 55f
10:06 9 14 mph 1025.3mb 59f 55f
10:00 9 14 mph 1025.3mb 59f 55f
9:54 10 13 mph 1025.2mb 59f 55f
9:48 10 16 mph 1025.2mb 59f 55f
9:42 10 14 mph 1025.1mb 59f 55f
9:36 11 14 mph 1025.1mb 59f 55f
9:30 10 16 mph 1025mb 59f 55f
9:24 11 17 mph 1024.8mb 59f 55f
9:18 10 11 mph 1024.8mb 59f 55f
9:12 10 17 mph 1024.6mb 59f 55f
9:06 9 15 mph 1024.5mb 59f 55f
9:00 10 16 mph 1024.3mb 59f 55f
8:54 13 16 mph 1024.2mb 59f 55f
8:48 8 13 mph 1024.1mb 59f 56f
8:42 11 15 mph 1024mb 59f 56f
8:36 11 15 mph 1023.9mb 59f 56f
8:30 10 15 mph 1023.9mb 59f 56f
8:24 10 16 mph 1023.8mb 59f 56f
8:18 13 18 mph 1023.7mb 59f 56f
8:12 13 21 mph 1023.6mb 59f 56f
8:06 13 16 mph 1023.5mb 60f 56f
8:00 11 16 mph 1023.4mb 60f 56f
7:54 14 16 mph 1023.3mb 60f 56f
7:48 10 14 mph 1023.2mb 60f 57f
7:42 10 14 mph 1023.1mb 60f 56f
7:36 10 15 mph 1023.1mb 60f 57f
7:30 10 16 mph 1023mb 60f 57f
7:24 11 16 mph 1022.9mb 60f 57f
7:18 11 16 mph 1022.8mb 60f 57f
7:12 11 15 mph 1022.7mb 60f 57f
7:06 11 16 mph 1022.6mb 60f 57f
7:00 13 15 mph 1022.4mb 60f 57f
6:54 10 13 mph 1022.3mb 60f 57f
6:48 9 13 mph 1022.2mb 60f 57f
6:42 9 11 mph 1022.1mb 60f 57f
6:36 8 11 mph 1022mb 60f 57f
6:30 10 14 mph 1022.1mb 60f 57f
6:24 7 11 mph 1022mb 60f 57f
6:18 9 13 mph 1022mb 60f 57f
6:12 9 15 mph 1021.9mb 60f 57f
6:06 8 13 mph 1021.8mb 60f 57f
6:00 8 13 mph 1021.7mb 60f 57f
5:54 8 11 mph 1021.7mb 60f 57f
5:48 8 11 mph 1021.6mb 60f 57f
5:42 10 16 mph 1021.7mb 60f 57f
5:36 11 15 mph 1021.7mb 60f 57f
5:30 10 14 mph 1021.6mb 60f 57f
5:24 13 17 mph 1021.5mb 60f 57f
5:18 14 17 mph 1021.3mb 60f 57f
5:12 13 16 mph 1021.2mb 60f 57f
5:06 14 17 mph 1021.2mb 60f 58f
5:00 14 18 mph 1021.1mb 60f 57f
4:54 15 18 mph 1021mb 60f 58f
4:48 14 20 mph 1021mb 60f 58f
4:42 11 16 mph 1020.9mb 60f 58f
4:36 10 15 mph 1020.8mb 60f 58f
4:30 11 14 mph 1020.7mb 60f 58f
4:24 7 13 mph 1020.7mb 60f 58f
4:18 10 14 mph 1020.6mb 60f 58f
4:12 9 11 mph 1020.6mb 60f 58f
4:06 8 11 mph 1020.6mb 60f 58f
4:00 7 11 mph 1020.5mb 60f 58f
3:54 9 13 mph 1020.5mb 60f 58f
3:48 9 14 mph 1020.4mb 60f 58f
3:42 9 15 mph 1020.4mb 60f 58f
3:36 9 16 mph 1020.4mb 60f 58f
3:30 10 15 mph 1020.3mb 60f 58f
3:24 13 17 mph 1020.2mb 60f 58f
3:18 13 15 mph 1020mb 60f 58f
3:12 13 15 mph 1020mb 60f 58f
3:06 9 15 mph 1019.9mb 60f 58f
3:00 13 14 mph 1019.8mb 60f 58f
2:54 8 13 mph 1019.7mb 60f 58f
2:48 11 15 mph 1019.6mb 60f 59f
2:42 10 14 mph 1019.6mb 60f 58f
2:36 10 13 mph 1019.6mb 60f 58f
2:30 10 16 mph 1019.6mb 60f 59f
2:24 11 15 mph 1019.6mb 60f 59f
2:18 10 15 mph 1019.5mb 60f 59f
2:12 9 13 mph 1019.5mb 60f 59f
2:06 8 10 mph 1019.4mb 60f 59f
2:00 5 7 mph 1019.4mb 60f 58f
1:54 6 8 mph 1019.5mb 60f 58f
1:48 6 7 mph 1019.4mb 60f -
1:42 6 10 mph 1019.2mb 60f -
1:36 6
mph
1019.1mb 60f -
1:30 3 5 mph 1018.9mb 60f 57f
1:24 3 5 mph 1018.8mb 60f 57f
1:18 3 5 mph 1018.8mb 60f 57f
1:12 3 5 mph 1018.7mb 60f 56f
1:06 5 6 mph 1018.7mb 60f 56f
1:00 3 5 mph 1018.5mb 60f 56f
12:54 6
mph
1018.4mb 60f 56f
12:48 5 6 mph 1018.4mb 60f 56f
12:42 5 6 mph 1018.3mb 60f 56f
12:36 6
mph
1018.3mb 60f 56f
12:30 6 7 mph 1018.3mb 60f 56f
12:24 6 7 mph 1018.2mb 60f 56f
12:18 5
mph
1018.1mb 60f 56f
12:12 2 3 mph 1017.9mb 60f 56f
12:06 3 5 mph 1017.9mb 60f 56f
12:00 3 5 mph 1017.8mb 60f 56f
mar. 09/27 11:54 3 5 mph 1017.7mb 60f 56f
11:48 5 6 mph 1017.7mb 60f 56f
11:42 6
mph
1017.6mb 60f 55f
11:36 6
mph
1017.5mb 60f 55f
11:30 5 6 mph 1017.4mb 60f 55f
11:24 5
mph
1017.4mb 60f 55f
11:18 3
mph
1017.3mb 60f 55f
11:12 3 5 mph 1017.2mb 60f 55f
11:06 3
mph
1017.1mb 60f 55f
11:00 3
mph
1017mb 60f 55f
10:54 3
mph
1016.9mb 60f 55f
10:48 2 3 mph 1016.8mb 60f 55f
10:42 2 3 mph 1016.8mb 60f 55f
10:36 2 3 mph 1016.7mb 60f 56f
10:30 2 3 mph 1016.7mb 60f 56f
10:24 3
mph
1016.7mb 60f 56f
10:18 3
mph
1016.6mb 60f 57f
10:12 3 5 mph 1016.5mb 60f 56f
10:06 3 5 mph 1016.5mb 60f 56f
10:00 3 5 mph 1016.4mb 60f 56f
9:54 3
mph
1016.3mb 60f 56f
9:48 2
mph
1016.1mb 60f 56f
9:42 2 3 mph 1016mb 60f 56f
9:36 3 5 mph 1016mb 60f 56f
9:30 2 3 mph 1015.9mb 60f 55f
9:24 2 3 mph 1015.8mb 60f 55f
9:18 3 5 mph - 60f 56f
9:12 5
mph
- 60f 56f
9:06 2 3 mph - 60f 56f
9:00  -  1 mph 1015.4mb 60f 57f
8:54  -  1 mph 1015.4mb 60f 57f
8:48 2
mph
1015.3mb 60f 57f
8:42 2
mph
1015.2mb 60f 57f
8:36  -  1 mph 1015mb 60f 58f
8:30 2 3 mph 1014.9mb 60f 58f
8:24 1 2 mph 1014.9mb 60f 58f
8:18  -  1 mph 1014.8mb 60f 58f
8:12  -  1 mph 1014.7mb 60f 58f
8:06  -  1 mph 1014.6mb 60f 58f
8:00  -  2 mph 1014.4mb 60f 58f
7:54  -  2 mph 1014.3mb 60f 58f
7:48 2 3 mph 1014.3mb 60f -
7:42 2
mph
1014.1mb 60f -
7:36  -  1 mph 1014mb 60f -
7:30 1 3 mph 1013.9mb 60f 60f
7:24 2 5 mph 1013.9mb 60f 60f
7:18 3 5 mph 1013.8mb 60f 60f
7:12 3 5 mph 1013.6mb 60f 60f
7:06 3 5 mph 1013.5mb 60f 60f
7:00 3 5 mph 1013.5mb 60f 60f
6:54 3
mph
1013.5mb 60f 60f
6:48 2 3 mph 1013.4mb 60f 60f
6:42 3 5 mph 1013.4mb 60f 60f
6:36 3 5 mph 1013.4mb 60f 61f
6:30 5
mph
1013.3mb 60f 61f
6:24 5
mph
1013.3mb 60f 61f
6:18 5 6 mph 1013.2mb 60f 61f
6:12 5 6 mph 1013.1mb 61f 61f
6:06 3
mph
1013mb 61f 62f
6:00 3 6 mph 1013.1mb 61f 62f
5:54 5 7 mph 1013mb 61f 62f
5:48 6
mph
- 61f 62f
5:42 5 6 mph - 61f 62f
5:36 5 6 mph - 61f 62f